sensor_id;sensor_type;location;lat;lon;timestamp;P1;durP1;ratioP1;P2;durP2;ratioP2
20245;SDS011;10281;54.406;18.556;2022-11-10T00:01:27;20.13;;;15.10;;
20245;SDS011;10281;54.406;18.556;2022-11-10T00:03:54;20.80;;;15.07;;
20245;SDS011;10281;54.406;18.556;2022-11-10T00:06:22;23.70;;;14.37;;
20245;SDS011;10281;54.406;18.556;2022-11-10T00:08:49;19.27;;;13.67;;
20245;SDS011;10281;54.406;18.556;2022-11-10T00:11:15;20.77;;;15.07;;
20245;SDS011;10281;54.406;18.556;2022-11-10T00:13:42;19.60;;;14.40;;
20245;SDS011;10281;54.406;18.556;2022-11-10T00:16:16;18.83;;;13.53;;
20245;SDS011;10281;54.406;18.556;2022-11-10T00:18:49;18.57;;;13.23;;
20245;SDS011;10281;54.406;18.556;2022-11-10T00:21:16;17.17;;;13.17;;
20245;SDS011;10281;54.406;18.556;2022-11-10T00:23:44;17.03;;;12.57;;
20245;SDS011;10281;54.406;18.556;2022-11-10T00:26:13;16.93;;;11.67;;
20245;SDS011;10281;54.406;18.556;2022-11-10T00:28:41;16.57;;;11.90;;
20245;SDS011;10281;54.406;18.556;2022-11-10T00:31:09;15.60;;;11.90;;
20245;SDS011;10281;54.406;18.556;2022-11-10T00:33:37;14.97;;;11.40;;
20245;SDS011;10281;54.406;18.556;2022-11-10T00:36:04;16.80;;;12.43;;
20245;SDS011;10281;54.406;18.556;2022-11-10T00:38:31;15.87;;;11.40;;
20245;SDS011;10281;54.406;18.556;2022-11-10T00:40:58;15.67;;;10.80;;
20245;SDS011;10281;54.406;18.556;2022-11-10T00:43:26;15.43;;;10.40;;
20245;SDS011;10281;54.406;18.556;2022-11-10T00:45:53;14.03;;;10.40;;
20245;SDS011;10281;54.406;18.556;2022-11-10T00:48:20;16.23;;;10.30;;
20245;SDS011;10281;54.406;18.556;2022-11-10T00:50:47;12.97;;;9.63;;
20245;SDS011;10281;54.406;18.556;2022-11-10T00:53:13;15.43;;;11.10;;
20245;SDS011;10281;54.406;18.556;2022-11-10T00:55:40;13.53;;;10.43;;
20245;SDS011;10281;54.406;18.556;2022-11-10T00:58:07;14.03;;;10.20;;
20245;SDS011;10281;54.406;18.556;2022-11-10T01:00:34;12.97;;;9.97;;
20245;SDS011;10281;54.406;18.556;2022-11-10T01:03:00;14.93;;;9.93;;
20245;SDS011;10281;54.406;18.556;2022-11-10T01:05:28;16.57;;;10.20;;
20245;SDS011;10281;54.406;18.556;2022-11-10T01:07:57;17.03;;;11.00;;
20245;SDS011;10281;54.406;18.556;2022-11-10T01:10:25;14.73;;;10.43;;
20245;SDS011;10281;54.406;18.556;2022-11-10T01:12:52;13.67;;;10.43;;
20245;SDS011;10281;54.406;18.556;2022-11-10T01:15:19;16.73;;;10.60;;
20245;SDS011;10281;54.406;18.556;2022-11-10T01:17:45;15.40;;;10.93;;
20245;SDS011;10281;54.406;18.556;2022-11-10T01:20:12;15.80;;;11.00;;
20245;SDS011;10281;54.406;18.556;2022-11-10T01:22:39;14.13;;;9.87;;
20245;SDS011;10281;54.406;18.556;2022-11-10T01:25:06;14.70;;;10.57;;
20245;SDS011;10281;54.406;18.556;2022-11-10T01:27:34;14.50;;;10.70;;
20245;SDS011;10281;54.406;18.556;2022-11-10T01:30:00;14.33;;;10.87;;
20245;SDS011;10281;54.406;18.556;2022-11-10T01:32:27;14.97;;;10.37;;
20245;SDS011;10281;54.406;18.556;2022-11-10T01:34:54;15.30;;;10.53;;
20245;SDS011;10281;54.406;18.556;2022-11-10T01:37:21;13.90;;;10.77;;
20245;SDS011;10281;54.406;18.556;2022-11-10T01:39:48;14.77;;;11.07;;
20245;SDS011;10281;54.406;18.556;2022-11-10T01:42:20;13.63;;;10.03;;
20245;SDS011;10281;54.406;18.556;2022-11-10T01:45:16;13.53;;;10.37;;
20245;SDS011;10281;54.406;18.556;2022-11-10T01:47:24;14.10;;;9.70;;
20245;SDS011;10281;54.406;18.556;2022-11-10T01:49:51;15.60;;;10.03;;
20245;SDS011;10281;54.406;18.556;2022-11-10T01:52:17;12.00;;;8.50;;
20245;SDS011;10281;54.406;18.556;2022-11-10T01:54:45;12.43;;;8.83;;
20245;SDS011;10281;54.406;18.556;2022-11-10T01:57:15;15.23;;;9.50;;
20245;SDS011;10281;54.406;18.556;2022-11-10T01:59:44;13.83;;;9.33;;
20245;SDS011;10281;54.406;18.556;2022-11-10T02:02:19;12.83;;;8.83;;
20245;SDS011;10281;54.406;18.556;2022-11-10T02:04:48;11.43;;;8.67;;
20245;SDS011;10281;54.406;18.556;2022-11-10T02:07:17;11.30;;;8.87;;
20245;SDS011;10281;54.406;18.556;2022-11-10T02:09:44;12.30;;;8.93;;
20245;SDS011;10281;54.406;18.556;2022-11-10T02:12:11;11.23;;;8.07;;
20245;SDS011;10281;54.406;18.556;2022-11-10T02:14:39;10.90;;;8.70;;
20245;SDS011;10281;54.406;18.556;2022-11-10T02:17:06;11.90;;;9.37;;
20245;SDS011;10281;54.406;18.556;2022-11-10T02:19:39;13.13;;;8.40;;
20245;SDS011;10281;54.406;18.556;2022-11-10T02:22:06;12.40;;;8.67;;
20245;SDS011;10281;54.406;18.556;2022-11-10T02:24:33;13.93;;;9.27;;
20245;SDS011;10281;54.406;18.556;2022-11-10T02:27:00;11.03;;;8.90;;
20245;SDS011;10281;54.406;18.556;2022-11-10T02:29:27;11.03;;;7.83;;
20245;SDS011;10281;54.406;18.556;2022-11-10T02:31:54;12.63;;;8.40;;
20245;SDS011;10281;54.406;18.556;2022-11-10T02:34:21;12.30;;;9.40;;
20245;SDS011;10281;54.406;18.556;2022-11-10T02:36:47;10.30;;;7.70;;
20245;SDS011;10281;54.406;18.556;2022-11-10T02:39:14;11.60;;;8.53;;
20245;SDS011;10281;54.406;18.556;2022-11-10T02:41:41;10.17;;;8.40;;
20245;SDS011;10281;54.406;18.556;2022-11-10T02:44:07;12.30;;;9.20;;
20245;SDS011;10281;54.406;18.556;2022-11-10T02:46:34;13.17;;;8.33;;
20245;SDS011;10281;54.406;18.556;2022-11-10T02:49:02;12.07;;;8.93;;
20245;SDS011;10281;54.406;18.556;2022-11-10T02:51:28;13.90;;;8.67;;
20245;SDS011;10281;54.406;18.556;2022-11-10T02:53:55;11.83;;;8.47;;
20245;SDS011;10281;54.406;18.556;2022-11-10T02:56:22;11.97;;;8.43;;
20245;SDS011;10281;54.406;18.556;2022-11-10T02:58:48;12.33;;;8.40;;
20245;SDS011;10281;54.406;18.556;2022-11-10T03:01:15;12.20;;;8.43;;
20245;SDS011;10281;54.406;18.556;2022-11-10T03:03:41;12.23;;;8.20;;
20245;SDS011;10281;54.406;18.556;2022-11-10T03:06:09;11.37;;;8.23;;
20245;SDS011;10281;54.406;18.556;2022-11-10T03:08:35;10.90;;;8.10;;
20245;SDS011;10281;54.406;18.556;2022-11-10T03:11:03;12.90;;;8.50;;
20245;SDS011;10281;54.406;18.556;2022-11-10T03:13:30;9.83;;;7.93;;
20245;SDS011;10281;54.406;18.556;2022-11-10T03:15:58;9.77;;;7.87;;
20245;SDS011;10281;54.406;18.556;2022-11-10T03:18:24;12.07;;;8.50;;
20245;SDS011;10281;54.406;18.556;2022-11-10T03:20:52;10.87;;;7.97;;
20245;SDS011;10281;54.406;18.556;2022-11-10T03:23:18;10.47;;;8.00;;
20245;SDS011;10281;54.406;18.556;2022-11-10T03:25:45;11.43;;;7.80;;
20245;SDS011;10281;54.406;18.556;2022-11-10T03:28:12;12.63;;;8.03;;
20245;SDS011;10281;54.406;18.556;2022-11-10T03:30:38;12.47;;;8.20;;
20245;SDS011;10281;54.406;18.556;2022-11-10T03:33:05;11.47;;;8.20;;
20245;SDS011;10281;54.406;18.556;2022-11-10T03:35:32;11.30;;;8.33;;
20245;SDS011;10281;54.406;18.556;2022-11-10T03:37:59;11.60;;;8.67;;
20245;SDS011;10281;54.406;18.556;2022-11-10T03:40:25;11.67;;;7.97;;
20245;SDS011;10281;54.406;18.556;2022-11-10T03:42:52;14.60;;;9.37;;
20245;SDS011;10281;54.406;18.556;2022-11-10T03:45:19;13.63;;;10.27;;
20245;SDS011;10281;54.406;18.556;2022-11-10T03:47:47;12.97;;;9.30;;
20245;SDS011;10281;54.406;18.556;2022-11-10T03:50:14;12.13;;;8.90;;
20245;SDS011;10281;54.406;18.556;2022-11-10T03:52:42;10.30;;;8.33;;
20245;SDS011;10281;54.406;18.556;2022-11-10T03:55:11;12.30;;;8.90;;
20245;SDS011;10281;54.406;18.556;2022-11-10T03:57:40;11.13;;;9.03;;
20245;SDS011;10281;54.406;18.556;2022-11-10T04:00:07;13.87;;;9.30;;
20245;SDS011;10281;54.406;18.556;2022-11-10T04:02:35;12.97;;;9.17;;
20245;SDS011;10281;54.406;18.556;2022-11-10T04:05:02;11.63;;;8.83;;
20245;SDS011;10281;54.406;18.556;2022-11-10T04:07:36;13.10;;;9.57;;
20245;SDS011;10281;54.406;18.556;2022-11-10T04:10:08;12.30;;;9.50;;
20245;SDS011;10281;54.406;18.556;2022-11-10T04:12:35;16.13;;;10.03;;
20245;SDS011;10281;54.406;18.556;2022-11-10T04:15:09;14.57;;;10.63;;
20245;SDS011;10281;54.406;18.556;2022-11-10T04:17:47;14.53;;;10.37;;
20245;SDS011;10281;54.406;18.556;2022-11-10T04:20:15;13.00;;;9.73;;
20245;SDS011;10281;54.406;18.556;2022-11-10T04:22:41;10.33;;;8.77;;
20245;SDS011;10281;54.406;18.556;2022-11-10T04:25:27;12.67;;;10.00;;
20245;SDS011;10281;54.406;18.556;2022-11-10T04:27:54;12.47;;;9.60;;
20245;SDS011;10281;54.406;18.556;2022-11-10T04:30:21;11.03;;;8.87;;
20245;SDS011;10281;54.406;18.556;2022-11-10T04:32:47;12.90;;;9.03;;
20245;SDS011;10281;54.406;18.556;2022-11-10T04:35:16;13.87;;;9.83;;
20245;SDS011;10281;54.406;18.556;2022-11-10T04:37:44;13.33;;;9.53;;
20245;SDS011;10281;54.406;18.556;2022-11-10T04:40:12;14.93;;;9.90;;
20245;SDS011;10281;54.406;18.556;2022-11-10T04:42:38;13.83;;;9.23;;
20245;SDS011;10281;54.406;18.556;2022-11-10T04:45:05;11.80;;;8.70;;
20245;SDS011;10281;54.406;18.556;2022-11-10T04:47:32;12.10;;;8.80;;
20245;SDS011;10281;54.406;18.556;2022-11-10T04:49:58;13.47;;;8.83;;
20245;SDS011;10281;54.406;18.556;2022-11-10T04:52:25;14.20;;;9.30;;
20245;SDS011;10281;54.406;18.556;2022-11-10T04:54:51;12.70;;;9.10;;
20245;SDS011;10281;54.406;18.556;2022-11-10T04:57:18;13.90;;;9.50;;
20245;SDS011;10281;54.406;18.556;2022-11-10T04:59:45;11.53;;;8.97;;
20245;SDS011;10281;54.406;18.556;2022-11-10T05:02:11;14.57;;;9.10;;
20245;SDS011;10281;54.406;18.556;2022-11-10T05:04:38;12.43;;;8.77;;
20245;SDS011;10281;54.406;18.556;2022-11-10T05:07:04;14.07;;;9.10;;
20245;SDS011;10281;54.406;18.556;2022-11-10T05:09:31;12.67;;;9.03;;
20245;SDS011;10281;54.406;18.556;2022-11-10T05:11:58;11.00;;;8.50;;
20245;SDS011;10281;54.406;18.556;2022-11-10T05:14:24;12.97;;;8.73;;
20245;SDS011;10281;54.406;18.556;2022-11-10T05:16:51;11.77;;;8.73;;
20245;SDS011;10281;54.406;18.556;2022-11-10T05:19:18;10.83;;;9.03;;
20245;SDS011;10281;54.406;18.556;2022-11-10T05:21:44;11.83;;;9.43;;
20245;SDS011;10281;54.406;18.556;2022-11-10T05:24:11;12.20;;;8.60;;
20245;SDS011;10281;54.406;18.556;2022-11-10T05:26:37;10.13;;;8.90;;
20245;SDS011;10281;54.406;18.556;2022-11-10T05:29:04;13.43;;;8.80;;
20245;SDS011;10281;54.406;18.556;2022-11-10T05:31:30;12.80;;;8.73;;
20245;SDS011;10281;54.406;18.556;2022-11-10T05:33:57;11.07;;;8.33;;
20245;SDS011;10281;54.406;18.556;2022-11-10T05:36:24;11.97;;;8.77;;
20245;SDS011;10281;54.406;18.556;2022-11-10T05:38:50;11.70;;;9.27;;
20245;SDS011;10281;54.406;18.556;2022-11-10T05:41:17;14.30;;;8.57;;
20245;SDS011;10281;54.406;18.556;2022-11-10T05:43:44;12.63;;;8.80;;
20245;SDS011;10281;54.406;18.556;2022-11-10T05:46:11;11.23;;;8.67;;
20245;SDS011;10281;54.406;18.556;2022-11-10T05:48:37;13.30;;;8.50;;
20245;SDS011;10281;54.406;18.556;2022-11-10T05:51:04;9.43;;;8.07;;
20245;SDS011;10281;54.406;18.556;2022-11-10T05:53:30;12.83;;;9.00;;
20245;SDS011;10281;54.406;18.556;2022-11-10T05:55:57;11.37;;;8.60;;
20245;SDS011;10281;54.406;18.556;2022-11-10T05:58:24;12.90;;;8.57;;
20245;SDS011;10281;54.406;18.556;2022-11-10T06:00:50;11.17;;;8.53;;
20245;SDS011;10281;54.406;18.556;2022-11-10T06:03:18;11.23;;;8.83;;
20245;SDS011;10281;54.406;18.556;2022-11-10T06:05:45;12.00;;;8.73;;
20245;SDS011;10281;54.406;18.556;2022-11-10T06:08:12;10.70;;;8.10;;
20245;SDS011;10281;54.406;18.556;2022-11-10T06:10:39;11.83;;;8.00;;
20245;SDS011;10281;54.406;18.556;2022-11-10T06:13:06;10.73;;;8.47;;
20245;SDS011;10281;54.406;18.556;2022-11-10T06:15:32;10.97;;;7.43;;
20245;SDS011;10281;54.406;18.556;2022-11-10T06:17:59;11.80;;;8.03;;
20245;SDS011;10281;54.406;18.556;2022-11-10T06:20:26;12.83;;;8.47;;
20245;SDS011;10281;54.406;18.556;2022-11-10T06:22:57;11.47;;;7.60;;
20245;SDS011;10281;54.406;18.556;2022-11-10T06:25:28;10.53;;;7.70;;
20245;SDS011;10281;54.406;18.556;2022-11-10T06:27:56;10.90;;;8.07;;
20245;SDS011;10281;54.406;18.556;2022-11-10T06:30:24;13.33;;;8.10;;
20245;SDS011;10281;54.406;18.556;2022-11-10T06:32:51;11.90;;;8.30;;
20245;SDS011;10281;54.406;18.556;2022-11-10T06:35:18;12.23;;;8.13;;
20245;SDS011;10281;54.406;18.556;2022-11-10T06:37:45;9.87;;;7.60;;
20245;SDS011;10281;54.406;18.556;2022-11-10T06:40:13;10.83;;;7.20;;
20245;SDS011;10281;54.406;18.556;2022-11-10T06:42:40;10.27;;;8.10;;
20245;SDS011;10281;54.406;18.556;2022-11-10T06:45:07;13.53;;;7.70;;
20245;SDS011;10281;54.406;18.556;2022-11-10T06:47:33;10.63;;;7.80;;
20245;SDS011;10281;54.406;18.556;2022-11-10T06:50:00;11.03;;;7.60;;
20245;SDS011;10281;54.406;18.556;2022-11-10T06:52:27;10.13;;;7.40;;
20245;SDS011;10281;54.406;18.556;2022-11-10T06:54:55;10.80;;;7.63;;
20245;SDS011;10281;54.406;18.556;2022-11-10T06:57:23;12.83;;;7.83;;
20245;SDS011;10281;54.406;18.556;2022-11-10T06:59:49;12.00;;;7.77;;
20245;SDS011;10281;54.406;18.556;2022-11-10T07:02:16;11.50;;;7.50;;
20245;SDS011;10281;54.406;18.556;2022-11-10T07:04:43;9.60;;;7.70;;
20245;SDS011;10281;54.406;18.556;2022-11-10T07:07:10;10.67;;;8.00;;
20245;SDS011;10281;54.406;18.556;2022-11-10T07:09:36;12.87;;;8.17;;
20245;SDS011;10281;54.406;18.556;2022-11-10T07:12:03;19.73;;;7.57;;
20245;SDS011;10281;54.406;18.556;2022-11-10T07:14:30;12.43;;;8.30;;
20245;SDS011;10281;54.406;18.556;2022-11-10T07:16:57;12.97;;;7.30;;
20245;SDS011;10281;54.406;18.556;2022-11-10T07:19:25;12.10;;;7.57;;
20245;SDS011;10281;54.406;18.556;2022-11-10T07:21:51;15.57;;;8.00;;
20245;SDS011;10281;54.406;18.556;2022-11-10T07:24:18;9.93;;;7.40;;
20245;SDS011;10281;54.406;18.556;2022-11-10T07:26:45;12.63;;;7.67;;
20245;SDS011;10281;54.406;18.556;2022-11-10T07:29:11;9.47;;;6.70;;
20245;SDS011;10281;54.406;18.556;2022-11-10T07:31:38;11.90;;;7.10;;
20245;SDS011;10281;54.406;18.556;2022-11-10T07:34:05;11.83;;;7.57;;
20245;SDS011;10281;54.406;18.556;2022-11-10T07:36:31;9.83;;;7.13;;
20245;SDS011;10281;54.406;18.556;2022-11-10T07:38:58;9.53;;;6.97;;
20245;SDS011;10281;54.406;18.556;2022-11-10T07:41:24;11.10;;;6.60;;
20245;SDS011;10281;54.406;18.556;2022-11-10T07:43:51;9.47;;;6.93;;
20245;SDS011;10281;54.406;18.556;2022-11-10T07:46:18;11.30;;;6.33;;
20245;SDS011;10281;54.406;18.556;2022-11-10T07:48:44;11.90;;;6.90;;
20245;SDS011;10281;54.406;18.556;2022-11-10T07:51:11;10.77;;;5.97;;
20245;SDS011;10281;54.406;18.556;2022-11-10T07:53:38;8.00;;;6.17;;
20245;SDS011;10281;54.406;18.556;2022-11-10T07:56:06;8.60;;;6.07;;
20245;SDS011;10281;54.406;18.556;2022-11-10T07:58:32;8.60;;;5.70;;
20245;SDS011;10281;54.406;18.556;2022-11-10T08:01:00;8.83;;;6.33;;
20245;SDS011;10281;54.406;18.556;2022-11-10T08:03:26;9.40;;;5.90;;
20245;SDS011;10281;54.406;18.556;2022-11-10T08:05:53;8.73;;;6.20;;
20245;SDS011;10281;54.406;18.556;2022-11-10T08:08:21;10.87;;;5.50;;
20245;SDS011;10281;54.406;18.556;2022-11-10T08:10:48;10.80;;;6.13;;
20245;SDS011;10281;54.406;18.556;2022-11-10T08:13:14;7.17;;;5.07;;
20245;SDS011;10281;54.406;18.556;2022-11-10T08:15:41;6.60;;;5.10;;
20245;SDS011;10281;54.406;18.556;2022-11-10T08:18:14;8.70;;;5.13;;
20245;SDS011;10281;54.406;18.556;2022-11-10T08:20:44;5.70;;;5.10;;
20245;SDS011;10281;54.406;18.556;2022-11-10T08:23:11;8.67;;;6.53;;
20245;SDS011;10281;54.406;18.556;2022-11-10T08:25:39;10.63;;;6.60;;
20245;SDS011;10281;54.406;18.556;2022-11-10T08:28:07;11.83;;;5.90;;
20245;SDS011;10281;54.406;18.556;2022-11-10T08:30:37;10.23;;;7.30;;
20245;SDS011;10281;54.406;18.556;2022-11-10T08:33:06;10.07;;;5.90;;
20245;SDS011;10281;54.406;18.556;2022-11-10T08:35:36;8.40;;;5.50;;
20245;SDS011;10281;54.406;18.556;2022-11-10T08:38:05;7.50;;;5.13;;
20245;SDS011;10281;54.406;18.556;2022-11-10T08:40:35;7.17;;;5.00;;
20245;SDS011;10281;54.406;18.556;2022-11-10T08:43:03;7.13;;;4.70;;
20245;SDS011;10281;54.406;18.556;2022-11-10T08:45:33;9.73;;;5.10;;
20245;SDS011;10281;54.406;18.556;2022-11-10T08:48:02;10.20;;;4.93;;
20245;SDS011;10281;54.406;18.556;2022-11-10T08:50:31;7.27;;;4.70;;
20245;SDS011;10281;54.406;18.556;2022-11-10T08:53:00;9.73;;;6.03;;
20245;SDS011;10281;54.406;18.556;2022-11-10T08:55:27;7.17;;;4.80;;
20245;SDS011;10281;54.406;18.556;2022-11-10T08:57:57;7.73;;;4.23;;
20245;SDS011;10281;54.406;18.556;2022-11-10T09:00:25;6.63;;;4.50;;
20245;SDS011;10281;54.406;18.556;2022-11-10T09:02:54;7.80;;;4.17;;
20245;SDS011;10281;54.406;18.556;2022-11-10T09:05:22;5.80;;;3.97;;
20245;SDS011;10281;54.406;18.556;2022-11-10T09:07:49;5.97;;;4.20;;
20245;SDS011;10281;54.406;18.556;2022-11-10T09:10:16;9.43;;;4.13;;
20245;SDS011;10281;54.406;18.556;2022-11-10T09:12:42;4.53;;;3.73;;
20245;SDS011;10281;54.406;18.556;2022-11-10T09:15:10;6.97;;;3.83;;
20245;SDS011;10281;54.406;18.556;2022-11-10T09:17:37;6.90;;;3.70;;
20245;SDS011;10281;54.406;18.556;2022-11-10T09:20:05;6.43;;;3.70;;
20245;SDS011;10281;54.406;18.556;2022-11-10T09:22:33;6.47;;;3.53;;
20245;SDS011;10281;54.406;18.556;2022-11-10T09:25:00;5.73;;;3.60;;
20245;SDS011;10281;54.406;18.556;2022-11-10T09:27:27;5.37;;;3.37;;
20245;SDS011;10281;54.406;18.556;2022-11-10T09:29:54;7.80;;;3.67;;
20245;SDS011;10281;54.406;18.556;2022-11-10T09:32:20;5.17;;;3.30;;
20245;SDS011;10281;54.406;18.556;2022-11-10T09:34:47;8.90;;;3.00;;
20245;SDS011;10281;54.406;18.556;2022-11-10T09:37:13;8.40;;;3.10;;
20245;SDS011;10281;54.406;18.556;2022-11-10T09:39:40;5.83;;;2.73;;
20245;SDS011;10281;54.406;18.556;2022-11-10T09:42:24;6.33;;;2.97;;
20245;SDS011;10281;54.406;18.556;2022-11-10T09:44:55;7.93;;;2.83;;
20245;SDS011;10281;54.406;18.556;2022-11-10T09:47:30;4.10;;;2.40;;
20245;SDS011;10281;54.406;18.556;2022-11-10T09:49:59;4.90;;;2.80;;
20245;SDS011;10281;54.406;18.556;2022-11-10T09:52:28;4.63;;;2.70;;
20245;SDS011;10281;54.406;18.556;2022-11-10T09:55:17;5.90;;;2.97;;
20245;SDS011;10281;54.406;18.556;2022-11-10T09:57:45;5.97;;;2.70;;
20245;SDS011;10281;54.406;18.556;2022-11-10T10:00:14;7.07;;;3.30;;
20245;SDS011;10281;54.406;18.556;2022-11-10T10:02:50;4.43;;;3.20;;
20245;SDS011;10281;54.406;18.556;2022-11-10T10:05:27;6.57;;;3.00;;
20245;SDS011;10281;54.406;18.556;2022-11-10T10:08:00;5.70;;;2.50;;
20245;SDS011;10281;54.406;18.556;2022-11-10T10:10:36;5.33;;;2.77;;
20245;SDS011;10281;54.406;18.556;2022-11-10T10:16:02;4.67;;;2.50;;
20245;SDS011;10281;54.406;18.556;2022-11-10T10:18:38;4.97;;;2.73;;
20245;SDS011;10281;54.406;18.556;2022-11-10T10:23:49;5.03;;;2.53;;
20245;SDS011;10281;54.406;18.556;2022-11-10T10:26:20;5.47;;;2.47;;
20245;SDS011;10281;54.406;18.556;2022-11-10T10:28:49;5.27;;;2.00;;
20245;SDS011;10281;54.406;18.556;2022-11-10T10:31:18;3.60;;;2.20;;
20245;SDS011;10281;54.406;18.556;2022-11-10T10:33:46;3.43;;;1.77;;
20245;SDS011;10281;54.406;18.556;2022-11-10T10:36:26;3.87;;;2.27;;
20245;SDS011;10281;54.406;18.556;2022-11-10T10:39:00;6.40;;;2.17;;
20245;SDS011;10281;54.406;18.556;2022-11-10T10:41:30;3.67;;;1.87;;
20245;SDS011;10281;54.406;18.556;2022-11-10T10:44:00;4.50;;;1.77;;
20245;SDS011;10281;54.406;18.556;2022-11-10T10:46:27;6.47;;;2.10;;
20245;SDS011;10281;54.406;18.556;2022-11-10T10:51:35;2.27;;;1.60;;
20245;SDS011;10281;54.406;18.556;2022-11-10T10:54:02;3.87;;;1.80;;
20245;SDS011;10281;54.406;18.556;2022-11-10T10:56:30;2.07;;;1.50;;
20245;SDS011;10281;54.406;18.556;2022-11-10T10:58:59;3.73;;;1.80;;
20245;SDS011;10281;54.406;18.556;2022-11-10T11:01:29;2.00;;;1.60;;
20245;SDS011;10281;54.406;18.556;2022-11-10T11:03:58;3.10;;;1.60;;
20245;SDS011;10281;54.406;18.556;2022-11-10T11:06:27;4.90;;;1.97;;
20245;SDS011;10281;54.406;18.556;2022-11-10T11:08:57;3.50;;;1.53;;
20245;SDS011;10281;54.406;18.556;2022-11-10T11:11:43;2.40;;;1.20;;
20245;SDS011;10281;54.406;18.556;2022-11-10T11:14:14;4.27;;;1.53;;
20245;SDS011;10281;54.406;18.556;2022-11-10T11:16:51;2.37;;;1.30;;
20245;SDS011;10281;54.406;18.556;2022-11-10T11:19:23;2.53;;;1.57;;
20245;SDS011;10281;54.406;18.556;2022-11-10T11:21:59;2.60;;;1.30;;
20245;SDS011;10281;54.406;18.556;2022-11-10T11:24:33;5.30;;;1.40;;
20245;SDS011;10281;54.406;18.556;2022-11-10T11:27:06;2.47;;;1.40;;
20245;SDS011;10281;54.406;18.556;2022-11-10T11:29:44;3.83;;;1.50;;
20245;SDS011;10281;54.406;18.556;2022-11-10T11:32:18;4.60;;;1.40;;
20245;SDS011;10281;54.406;18.556;2022-11-10T11:34:49;4.50;;;1.40;;
20245;SDS011;10281;54.406;18.556;2022-11-10T11:37:20;4.90;;;1.90;;
20245;SDS011;10281;54.406;18.556;2022-11-10T11:40:09;3.70;;;1.57;;
20245;SDS011;10281;54.406;18.556;2022-11-10T11:43:14;2.57;;;1.40;;
20245;SDS011;10281;54.406;18.556;2022-11-10T11:45:34;3.30;;;1.63;;
20245;SDS011;10281;54.406;18.556;2022-11-10T11:50:50;3.73;;;1.73;;
20245;SDS011;10281;54.406;18.556;2022-11-10T11:53:32;4.30;;;1.87;;
20245;SDS011;10281;54.406;18.556;2022-11-10T11:56:10;5.07;;;2.27;;
20245;SDS011;10281;54.406;18.556;2022-11-10T11:58:42;6.57;;;1.83;;
20245;SDS011;10281;54.406;18.556;2022-11-10T12:01:47;9.70;;;1.90;;
20245;SDS011;10281;54.406;18.556;2022-11-10T12:06:40;4.57;;;2.33;;
20245;SDS011;10281;54.406;18.556;2022-11-10T12:17:21;6.80;;;2.30;;
20245;SDS011;10281;54.406;18.556;2022-11-10T12:20:08;5.70;;;2.20;;
20245;SDS011;10281;54.406;18.556;2022-11-10T12:22:56;20.47;;;3.93;;
20245;SDS011;10281;54.406;18.556;2022-11-10T12:25:29;6.30;;;1.97;;
20245;SDS011;10281;54.406;18.556;2022-11-10T12:28:07;5.80;;;1.90;;
20245;SDS011;10281;54.406;18.556;2022-11-10T12:30:32;5.13;;;1.90;;
20245;SDS011;10281;54.406;18.556;2022-11-10T12:33:03;10.43;;;2.40;;
20245;SDS011;10281;54.406;18.556;2022-11-10T12:35:50;7.00;;;2.10;;
20245;SDS011;10281;54.406;18.556;2022-11-10T12:38:21;8.40;;;2.67;;
20245;SDS011;10281;54.406;18.556;2022-11-10T12:40:53;6.87;;;2.20;;
20245;SDS011;10281;54.406;18.556;2022-11-10T12:43:27;6.90;;;2.60;;
20245;SDS011;10281;54.406;18.556;2022-11-10T12:45:56;11.27;;;2.37;;
20245;SDS011;10281;54.406;18.556;2022-11-10T12:48:26;4.90;;;1.83;;
20245;SDS011;10281;54.406;18.556;2022-11-10T12:50:58;8.70;;;2.37;;
20245;SDS011;10281;54.406;18.556;2022-11-10T12:53:35;5.43;;;2.23;;
20245;SDS011;10281;54.406;18.556;2022-11-10T12:56:06;8.87;;;2.10;;
20245;SDS011;10281;54.406;18.556;2022-11-10T12:58:35;5.20;;;1.90;;
20245;SDS011;10281;54.406;18.556;2022-11-10T13:01:03;9.27;;;2.93;;
20245;SDS011;10281;54.406;18.556;2022-11-10T13:03:33;11.23;;;3.30;;
20245;SDS011;10281;54.406;18.556;2022-11-10T13:06:03;12.27;;;4.43;;
20245;SDS011;10281;54.406;18.556;2022-11-10T13:08:34;8.20;;;2.50;;
20245;SDS011;10281;54.406;18.556;2022-11-10T13:11:06;9.90;;;2.50;;
20245;SDS011;10281;54.406;18.556;2022-11-10T13:13:40;5.47;;;2.07;;
20245;SDS011;10281;54.406;18.556;2022-11-10T13:22:33;6.87;;;2.40;;
20245;SDS011;10281;54.406;18.556;2022-11-10T13:27:55;9.83;;;3.00;;
20245;SDS011;10281;54.406;18.556;2022-11-10T13:38:47;8.60;;;2.10;;
20245;SDS011;10281;54.406;18.556;2022-11-10T13:43:51;10.07;;;2.87;;
20245;SDS011;10281;54.406;18.556;2022-11-10T13:46:35;9.57;;;2.70;;
20245;SDS011;10281;54.406;18.556;2022-11-10T13:49:10;8.80;;;2.60;;
20245;SDS011;10281;54.406;18.556;2022-11-10T13:51:54;5.60;;;2.40;;
20245;SDS011;10281;54.406;18.556;2022-11-10T13:54:32;9.87;;;2.30;;
20245;SDS011;10281;54.406;18.556;2022-11-10T13:57:04;9.20;;;2.87;;
20245;SDS011;10281;54.406;18.556;2022-11-10T13:59:45;5.97;;;2.20;;
20245;SDS011;10281;54.406;18.556;2022-11-10T14:04:55;9.87;;;2.30;;
20245;SDS011;10281;54.406;18.556;2022-11-10T14:07:22;5.97;;;2.17;;
20245;SDS011;10281;54.406;18.556;2022-11-10T14:09:50;9.20;;;2.97;;
20245;SDS011;10281;54.406;18.556;2022-11-10T14:12:22;5.80;;;2.20;;
20245;SDS011;10281;54.406;18.556;2022-11-10T14:14:59;6.17;;;2.50;;
20245;SDS011;10281;54.406;18.556;2022-11-10T14:17:31;7.33;;;2.27;;
20245;SDS011;10281;54.406;18.556;2022-11-10T14:20:00;7.70;;;2.33;;
20245;SDS011;10281;54.406;18.556;2022-11-10T14:22:37;9.87;;;2.33;;
20245;SDS011;10281;54.406;18.556;2022-11-10T14:25:13;9.97;;;2.53;;
20245;SDS011;10281;54.406;18.556;2022-11-10T14:27:40;11.47;;;2.80;;
20245;SDS011;10281;54.406;18.556;2022-11-10T14:30:26;8.77;;;2.90;;
20245;SDS011;10281;54.406;18.556;2022-11-10T14:32:57;7.77;;;3.00;;
20245;SDS011;10281;54.406;18.556;2022-11-10T14:35:29;8.40;;;2.70;;
20245;SDS011;10281;54.406;18.556;2022-11-10T14:37:58;8.43;;;2.90;;
20245;SDS011;10281;54.406;18.556;2022-11-10T14:40:26;7.83;;;2.87;;
20245;SDS011;10281;54.406;18.556;2022-11-10T14:42:53;8.40;;;3.30;;
20245;SDS011;10281;54.406;18.556;2022-11-10T14:45:21;10.67;;;3.90;;
20245;SDS011;10281;54.406;18.556;2022-11-10T14:47:54;9.97;;;3.50;;
20245;SDS011;10281;54.406;18.556;2022-11-10T14:50:26;7.37;;;3.10;;
20245;SDS011;10281;54.406;18.556;2022-11-10T14:55:43;7.90;;;2.83;;
20245;SDS011;10281;54.406;18.556;2022-11-10T14:58:15;11.57;;;4.00;;
20245;SDS011;10281;54.406;18.556;2022-11-10T15:00:44;7.77;;;3.40;;
20245;SDS011;10281;54.406;18.556;2022-11-10T15:03:13;10.10;;;3.67;;
20245;SDS011;10281;54.406;18.556;2022-11-10T15:05:41;7.53;;;3.20;;
20245;SDS011;10281;54.406;18.556;2022-11-10T15:08:08;9.20;;;3.50;;
20245;SDS011;10281;54.406;18.556;2022-11-10T15:10:45;6.70;;;2.60;;
20245;SDS011;10281;54.406;18.556;2022-11-10T15:13:18;7.73;;;2.83;;
20245;SDS011;10281;54.406;18.556;2022-11-10T15:15:47;7.73;;;2.60;;
20245;SDS011;10281;54.406;18.556;2022-11-10T15:20:59;9.27;;;2.83;;
20245;SDS011;10281;54.406;18.556;2022-11-10T15:23:30;11.47;;;4.07;;
20245;SDS011;10281;54.406;18.556;2022-11-10T15:26:02;10.10;;;3.30;;
20245;SDS011;10281;54.406;18.556;2022-11-10T15:28:31;10.33;;;3.17;;